sensor_id;sensor_type;location;lat;lon;timestamp;temperature;humidity
76120;DHT22;64852;48.092;-1.640;2022-12-18T00:01:41;2.70;99.90
76120;DHT22;64852;48.092;-1.640;2022-12-18T00:04:11;3.50;99.90
76120;DHT22;64852;48.092;-1.640;2022-12-18T00:06:40;3.70;99.90
76120;DHT22;64852;48.092;-1.640;2022-12-18T00:09:06;2.60;99.90
76120;DHT22;64852;48.092;-1.640;2022-12-18T00:11:32;2.50;99.90
76120;DHT22;64852;48.092;-1.640;2022-12-18T00:13:59;3.20;99.90
76120;DHT22;64852;48.092;-1.640;2022-12-18T00:16:26;3.20;99.90
76120;DHT22;64852;48.092;-1.640;2022-12-18T00:18:54;2.90;99.90
76120;DHT22;64852;48.092;-1.640;2022-12-18T00:21:21;3.00;99.90
76120;DHT22;64852;48.092;-1.640;2022-12-18T00:23:48;2.50;99.90
76120;DHT22;64852;48.092;-1.640;2022-12-18T00:26:16;3.10;99.90
76120;DHT22;64852;48.092;-1.640;2022-12-18T00:28:43;2.70;99.90
76120;DHT22;64852;48.092;-1.640;2022-12-18T00:31:12;3.20;99.90
76120;DHT22;64852;48.092;-1.640;2022-12-18T00:33:38;3.40;99.90
76120;DHT22;64852;48.092;-1.640;2022-12-18T00:36:04;3.10;99.90
76120;DHT22;64852;48.092;-1.640;2022-12-18T00:38:30;2.50;99.90
76120;DHT22;64852;48.092;-1.640;2022-12-18T00:40:56;3.00;99.90
76120;DHT22;64852;48.092;-1.640;2022-12-18T00:43:22;3.50;99.90
76120;DHT22;64852;48.092;-1.640;2022-12-18T00:45:47;3.30;99.90
76120;DHT22;64852;48.092;-1.640;2022-12-18T00:48:13;3.50;99.90
76120;DHT22;64852;48.092;-1.640;2022-12-18T00:50:38;3.00;99.90
76120;DHT22;64852;48.092;-1.640;2022-12-18T00:53:04;3.00;99.90
76120;DHT22;64852;48.092;-1.640;2022-12-18T00:55:30;3.60;99.90
76120;DHT22;64852;48.092;-1.640;2022-12-18T00:57:55;2.70;99.90
76120;DHT22;64852;48.092;-1.640;2022-12-18T01:00:21;3.00;99.90
76120;DHT22;64852;48.092;-1.640;2022-12-18T01:02:47;2.50;99.90
76120;DHT22;64852;48.092;-1.640;2022-12-18T01:05:13;3.00;99.90
76120;DHT22;64852;48.092;-1.640;2022-12-18T01:07:39;3.20;99.90
76120;DHT22;64852;48.092;-1.640;2022-12-18T01:10:06;3.50;99.90
76120;DHT22;64852;48.092;-1.640;2022-12-18T01:12:32;2.60;99.90
76120;DHT22;64852;48.092;-1.640;2022-12-18T01:14:58;2.60;99.90
76120;DHT22;64852;48.092;-1.640;2022-12-18T01:17:23;2.50;99.90
76120;DHT22;64852;48.092;-1.640;2022-12-18T01:19:49;3.40;99.90
76120;DHT22;64852;48.092;-1.640;2022-12-18T01:22:15;3.50;99.90
76120;DHT22;64852;48.092;-1.640;2022-12-18T01:24:40;2.50;99.90
76120;DHT22;64852;48.092;-1.640;2022-12-18T01:27:06;2.60;99.90
76120;DHT22;64852;48.092;-1.640;2022-12-18T01:29:32;2.70;99.90
76120;DHT22;64852;48.092;-1.640;2022-12-18T01:31:57;3.40;99.90
76120;DHT22;64852;48.092;-1.640;2022-12-18T01:34:24;2.80;99.90
76120;DHT22;64852;48.092;-1.640;2022-12-18T01:36:49;2.80;99.90
76120;DHT22;64852;48.092;-1.640;2022-12-18T01:39:17;2.40;99.90
76120;DHT22;64852;48.092;-1.640;2022-12-18T01:41:43;2.30;99.90
76120;DHT22;64852;48.092;-1.640;2022-12-18T01:47:23;2.30;99.90
76120;DHT22;64852;48.092;-1.640;2022-12-18T01:49:50;2.20;99.90
76120;DHT22;64852;48.092;-1.640;2022-12-18T01:52:17;2.90;99.90
76120;DHT22;64852;48.092;-1.640;2022-12-18T01:54:44;3.00;99.90
76120;DHT22;64852;48.092;-1.640;2022-12-18T01:57:10;3.00;99.90
76120;DHT22;64852;48.092;-1.640;2022-12-18T01:59:36;2.50;99.90
76120;DHT22;64852;48.092;-1.640;2022-12-18T02:02:03;3.40;99.90
76120;DHT22;64852;48.092;-1.640;2022-12-18T02:04:29;2.90;99.90
76120;DHT22;64852;48.092;-1.640;2022-12-18T02:06:57;3.30;99.90
76120;DHT22;64852;48.092;-1.640;2022-12-18T02:09:41;2.80;99.90
76120;DHT22;64852;48.092;-1.640;2022-12-18T02:17:21;2.40;99.90
76120;DHT22;64852;48.092;-1.640;2022-12-18T02:27:37;2.40;99.90
76120;DHT22;64852;48.092;-1.640;2022-12-18T02:30:04;3.00;99.90
76120;DHT22;64852;48.092;-1.640;2022-12-18T02:32:34;2.40;99.90
76120;DHT22;64852;48.092;-1.640;2022-12-18T02:35:03;2.60;99.90
76120;DHT22;64852;48.092;-1.640;2022-12-18T02:37:30;2.50;99.90
76120;DHT22;64852;48.092;-1.640;2022-12-18T02:39:59;2.40;99.90
76120;DHT22;64852;48.092;-1.640;2022-12-18T02:42:26;2.40;99.90
76120;DHT22;64852;48.092;-1.640;2022-12-18T02:44:54;3.30;99.90
76120;DHT22;64852;48.092;-1.640;2022-12-18T02:47:23;3.10;99.90
76120;DHT22;64852;48.092;-1.640;2022-12-18T02:49:55;3.10;99.90
76120;DHT22;64852;48.092;-1.640;2022-12-18T02:55:28;2.40;99.90
76120;DHT22;64852;48.092;-1.640;2022-12-18T02:58:01;3.10;99.90
76120;DHT22;64852;48.092;-1.640;2022-12-18T03:00:34;3.50;99.90
76120;DHT22;64852;48.092;-1.640;2022-12-18T03:03:25;2.50;99.90
76120;DHT22;64852;48.092;-1.640;2022-12-18T03:06:20;2.40;99.90
76120;DHT22;64852;48.092;-1.640;2022-12-18T03:08:51;2.40;99.90
76120;DHT22;64852;48.092;-1.640;2022-12-18T03:11:18;2.80;99.90
76120;DHT22;64852;48.092;-1.640;2022-12-18T03:14:07;3.40;99.90
76120;DHT22;64852;48.092;-1.640;2022-12-18T03:16:34;3.40;99.90
76120;DHT22;64852;48.092;-1.640;2022-12-18T03:19:03;3.10;99.90
76120;DHT22;64852;48.092;-1.640;2022-12-18T03:21:35;3.10;99.90
76120;DHT22;64852;48.092;-1.640;2022-12-18T03:24:06;3.30;99.90
76120;DHT22;64852;48.092;-1.640;2022-12-18T03:26:34;2.40;99.90
76120;DHT22;64852;48.092;-1.640;2022-12-18T03:29:05;2.70;99.90
76120;DHT22;64852;48.092;-1.640;2022-12-18T03:31:33;2.80;99.90
76120;DHT22;64852;48.092;-1.640;2022-12-18T03:34:01;2.60;99.90
76120;DHT22;64852;48.092;-1.640;2022-12-18T03:36:28;2.90;99.90
76120;DHT22;64852;48.092;-1.640;2022-12-18T03:38:54;2.70;99.90
76120;DHT22;64852;48.092;-1.640;2022-12-18T03:44:37;3.30;99.90
76120;DHT22;64852;48.092;-1.640;2022-12-18T03:47:31;2.70;99.90
76120;DHT22;64852;48.092;-1.640;2022-12-18T03:52:45;2.70;99.90
76120;DHT22;64852;48.092;-1.640;2022-12-18T03:55:13;3.70;99.90
76120;DHT22;64852;48.092;-1.640;2022-12-18T03:57:39;3.60;99.90
76120;DHT22;64852;48.092;-1.640;2022-12-18T04:00:10;3.20;99.90
76120;DHT22;64852;48.092;-1.640;2022-12-18T04:02:38;2.80;99.90
76120;DHT22;64852;48.092;-1.640;2022-12-18T04:05:05;3.00;99.90
76120;DHT22;64852;48.092;-1.640;2022-12-18T04:07:32;2.90;99.90
76120;DHT22;64852;48.092;-1.640;2022-12-18T04:10:00;3.70;99.90
76120;DHT22;64852;48.092;-1.640;2022-12-18T04:12:29;4.10;99.90
76120;DHT22;64852;48.092;-1.640;2022-12-18T04:14:55;3.40;99.90
76120;DHT22;64852;48.092;-1.640;2022-12-18T04:17:21;2.90;99.90
76120;DHT22;64852;48.092;-1.640;2022-12-18T04:19:47;3.20;99.90
76120;DHT22;64852;48.092;-1.640;2022-12-18T04:22:12;3.00;99.90
76120;DHT22;64852;48.092;-1.640;2022-12-18T04:24:38;4.10;99.90
76120;DHT22;64852;48.092;-1.640;2022-12-18T04:27:04;3.90;99.90
76120;DHT22;64852;48.092;-1.640;2022-12-18T04:29:30;3.10;99.90
76120;DHT22;64852;48.092;-1.640;2022-12-18T04:31:55;3.20;99.90
76120;DHT22;64852;48.092;-1.640;2022-12-18T04:34:21;4.10;99.90
76120;DHT22;64852;48.092;-1.640;2022-12-18T04:36:47;4.00;99.90
76120;DHT22;64852;48.092;-1.640;2022-12-18T04:39:13;3.40;99.90
76120;DHT22;64852;48.092;-1.640;2022-12-18T04:41:39;3.00;99.90
76120;DHT22;64852;48.092;-1.640;2022-12-18T04:44:05;3.90;99.90
76120;DHT22;64852;48.092;-1.640;2022-12-18T04:46:31;3.00;99.90
76120;DHT22;64852;48.092;-1.640;2022-12-18T04:48:56;3.80;99.90
76120;DHT22;64852;48.092;-1.640;2022-12-18T04:51:22;3.90;99.90
76120;DHT22;64852;48.092;-1.640;2022-12-18T04:53:47;3.10;99.90
76120;DHT22;64852;48.092;-1.640;2022-12-18T04:56:14;3.20;99.90
76120;DHT22;64852;48.092;-1.640;2022-12-18T04:58:41;3.80;99.90
76120;DHT22;64852;48.092;-1.640;2022-12-18T05:01:08;3.80;99.90
76120;DHT22;64852;48.092;-1.640;2022-12-18T05:03:34;4.10;99.90
76120;DHT22;64852;48.092;-1.640;2022-12-18T05:06:00;3.40;99.90
76120;DHT22;64852;48.092;-1.640;2022-12-18T05:08:26;3.40;99.90
76120;DHT22;64852;48.092;-1.640;2022-12-18T05:11:21;3.90;99.90
76120;DHT22;64852;48.092;-1.640;2022-12-18T05:13:47;3.50;99.90
76120;DHT22;64852;48.092;-1.640;2022-12-18T05:16:13;4.20;99.90
76120;DHT22;64852;48.092;-1.640;2022-12-18T05:18:39;3.60;99.90
76120;DHT22;64852;48.092;-1.640;2022-12-18T05:21:05;3.80;99.90
76120;DHT22;64852;48.092;-1.640;2022-12-18T05:23:31;3.60;99.90
76120;DHT22;64852;48.092;-1.640;2022-12-18T05:25:59;3.30;99.90
76120;DHT22;64852;48.092;-1.640;2022-12-18T05:28:27;3.30;99.90
76120;DHT22;64852;48.092;-1.640;2022-12-18T05:30:55;4.10;99.90
76120;DHT22;64852;48.092;-1.640;2022-12-18T05:33:22;3.30;99.90
76120;DHT22;64852;48.092;-1.640;2022-12-18T05:35:56;4.20;99.90
76120;DHT22;64852;48.092;-1.640;2022-12-18T05:38:22;3.30;99.90
76120;DHT22;64852;48.092;-1.640;2022-12-18T05:40:52;4.30;99.90
76120;DHT22;64852;48.092;-1.640;2022-12-18T05:43:19;3.70;99.90
76120;DHT22;64852;48.092;-1.640;2022-12-18T05:45:44;3.70;99.90
76120;DHT22;64852;48.092;-1.640;2022-12-18T05:48:10;4.40;99.90
76120;DHT22;64852;48.092;-1.640;2022-12-18T05:50:37;3.90;99.90
76120;DHT22;64852;48.092;-1.640;2022-12-18T05:53:04;3.40;99.90
76120;DHT22;64852;48.092;-1.640;2022-12-18T05:55:35;3.40;99.90
76120;DHT22;64852;48.092;-1.640;2022-12-18T05:58:02;4.50;99.90
76120;DHT22;64852;48.092;-1.640;2022-12-18T06:00:28;4.30;99.90
76120;DHT22;64852;48.092;-1.640;2022-12-18T06:02:54;3.50;99.90
76120;DHT22;64852;48.092;-1.640;2022-12-18T06:05:19;3.90;99.90
76120;DHT22;64852;48.092;-1.640;2022-12-18T06:07:45;3.60;99.90
76120;DHT22;64852;48.092;-1.640;2022-12-18T06:10:10;3.50;99.90
76120;DHT22;64852;48.092;-1.640;2022-12-18T06:12:37;3.60;99.90
76120;DHT22;64852;48.092;-1.640;2022-12-18T06:15:03;4.70;99.90
76120;DHT22;64852;48.092;-1.640;2022-12-18T06:17:30;3.60;99.90
76120;DHT22;64852;48.092;-1.640;2022-12-18T06:19:56;3.60;99.90
76120;DHT22;64852;48.092;-1.640;2022-12-18T06:22:22;4.60;99.90
76120;DHT22;64852;48.092;-1.640;2022-12-18T06:24:48;3.80;99.90
76120;DHT22;64852;48.092;-1.640;2022-12-18T06:27:14;3.70;99.90
76120;DHT22;64852;48.092;-1.640;2022-12-18T06:29:39;4.00;99.90
76120;DHT22;64852;48.092;-1.640;2022-12-18T06:32:05;4.60;99.90
76120;DHT22;64852;48.092;-1.640;2022-12-18T06:34:31;3.70;99.90
76120;DHT22;64852;48.092;-1.640;2022-12-18T06:36:57;3.70;99.90
76120;DHT22;64852;48.092;-1.640;2022-12-18T06:39:23;3.80;99.90
76120;DHT22;64852;48.092;-1.640;2022-12-18T06:41:49;4.80;99.90
76120;DHT22;64852;48.092;-1.640;2022-12-18T06:44:14;3.80;99.90
76120;DHT22;64852;48.092;-1.640;2022-12-18T06:46:40;3.80;99.90
76120;DHT22;64852;48.092;-1.640;2022-12-18T06:49:06;3.90;99.90
76120;DHT22;64852;48.092;-1.640;2022-12-18T06:51:32;4.50;99.90
76120;DHT22;64852;48.092;-1.640;2022-12-18T06:53:57;3.90;99.90
76120;DHT22;64852;48.092;-1.640;2022-12-18T06:56:23;4.00;99.90
76120;DHT22;64852;48.092;-1.640;2022-12-18T06:58:49;4.00;99.90
76120;DHT22;64852;48.092;-1.640;2022-12-18T07:01:14;4.00;99.90
76120;DHT22;64852;48.092;-1.640;2022-12-18T07:03:42;4.00;99.90
76120;DHT22;64852;48.092;-1.640;2022-12-18T07:06:16;4.00;99.90
76120;DHT22;64852;48.092;-1.640;2022-12-18T07:08:42;4.10;99.90
76120;DHT22;64852;48.092;-1.640;2022-12-18T07:11:08;4.50;99.90
76120;DHT22;64852;48.092;-1.640;2022-12-18T07:13:34;4.00;99.90
76120;DHT22;64852;48.092;-1.640;2022-12-18T07:18:31;4.00;99.90
76120;DHT22;64852;48.092;-1.640;2022-12-18T07:20:57;4.10;99.90
76120;DHT22;64852;48.092;-1.640;2022-12-18T07:23:22;4.10;99.90
76120;DHT22;64852;48.092;-1.640;2022-12-18T07:25:48;4.20;99.90
76120;DHT22;64852;48.092;-1.640;2022-12-18T07:28:14;4.30;99.90
76120;DHT22;64852;48.092;-1.640;2022-12-18T07:30:40;5.10;99.90
76120;DHT22;64852;48.092;-1.640;2022-12-18T07:33:05;4.30;99.90
76120;DHT22;64852;48.092;-1.640;2022-12-18T07:35:33;4.40;99.90
76120;DHT22;64852;48.092;-1.640;2022-12-18T07:37:58;4.70;99.90
76120;DHT22;64852;48.092;-1.640;2022-12-18T07:40:24;4.90;99.90
76120;DHT22;64852;48.092;-1.640;2022-12-18T07:42:49;4.30;99.90
76120;DHT22;64852;48.092;-1.640;2022-12-18T07:45:15;4.40;99.90
76120;DHT22;64852;48.092;-1.640;2022-12-18T07:47:41;4.40;99.90
76120;DHT22;64852;48.092;-1.640;2022-12-18T07:50:07;4.40;99.90
76120;DHT22;64852;48.092;-1.640;2022-12-18T07:52:32;4.40;99.90
76120;DHT22;64852;48.092;-1.640;2022-12-18T07:54:58;4.40;99.90
76120;DHT22;64852;48.092;-1.640;2022-12-18T07:57:24;4.40;99.90
76120;DHT22;64852;48.092;-1.640;2022-12-18T07:59:49;4.50;99.90
76120;DHT22;64852;48.092;-1.640;2022-12-18T08:02:15;4.50;99.90
76120;DHT22;64852;48.092;-1.640;2022-12-18T08:04:40;4.50;99.90
76120;DHT22;64852;48.092;-1.640;2022-12-18T08:07:06;4.60;99.90
76120;DHT22;64852;48.092;-1.640;2022-12-18T08:09:32;4.50;99.90
76120;DHT22;64852;48.092;-1.640;2022-12-18T08:11:57;4.60;99.90
76120;DHT22;64852;48.092;-1.640;2022-12-18T08:14:23;4.60;99.90
76120;DHT22;64852;48.092;-1.640;2022-12-18T08:16:49;4.60;99.90
76120;DHT22;64852;48.092;-1.640;2022-12-18T08:19:14;4.60;99.90
76120;DHT22;64852;48.092;-1.640;2022-12-18T08:21:40;4.60;99.90
76120;DHT22;64852;48.092;-1.640;2022-12-18T08:24:06;4.90;99.90
76120;DHT22;64852;48.092;-1.640;2022-12-18T08:26:31;4.70;99.90
76120;DHT22;64852;48.092;-1.640;2022-12-18T08:28:59;4.70;99.90
76120;DHT22;64852;48.092;-1.640;2022-12-18T08:31:26;4.60;99.90
76120;DHT22;64852;48.092;-1.640;2022-12-18T08:33:52;4.60;99.90
76120;DHT22;64852;48.092;-1.640;2022-12-18T08:36:18;4.70;99.90
76120;DHT22;64852;48.092;-1.640;2022-12-18T08:38:45;4.70;99.90
76120;DHT22;64852;48.092;-1.640;2022-12-18T08:41:13;4.80;99.90
76120;DHT22;64852;48.092;-1.640;2022-12-18T08:43:39;5.30;99.90
76120;DHT22;64852;48.092;-1.640;2022-12-18T08:46:25;4.70;99.90
76120;DHT22;64852;48.092;-1.640;2022-12-18T08:48:52;4.80;99.90
76120;DHT22;64852;48.092;-1.640;2022-12-18T08:51:19;4.80;99.90
76120;DHT22;64852;48.092;-1.640;2022-12-18T08:53:45;4.90;99.90
76120;DHT22;64852;48.092;-1.640;2022-12-18T08:56:11;4.80;99.90
76120;DHT22;64852;48.092;-1.640;2022-12-18T08:58:37;4.90;99.90
76120;DHT22;64852;48.092;-1.640;2022-12-18T09:01:04;5.00;99.90
76120;DHT22;64852;48.092;-1.640;2022-12-18T09:03:30;4.90;99.90
76120;DHT22;64852;48.092;-1.640;2022-12-18T09:05:56;5.00;99.90
76120;DHT22;64852;48.092;-1.640;2022-12-18T09:08:22;5.00;99.90
76120;DHT22;64852;48.092;-1.640;2022-12-18T09:10:49;5.10;99.90
76120;DHT22;64852;48.092;-1.640;2022-12-18T09:13:15;5.10;99.90
76120;DHT22;64852;48.092;-1.640;2022-12-18T09:15:42;5.10;99.90
76120;DHT22;64852;48.092;-1.640;2022-12-18T09:18:08;5.20;99.90
76120;DHT22;64852;48.092;-1.640;2022-12-18T09:20:35;5.20;99.90
76120;DHT22;64852;48.092;-1.640;2022-12-18T09:23:01;5.20;99.90
76120;DHT22;64852;48.092;-1.640;2022-12-18T09:25:29;5.30;99.90
76120;DHT22;64852;48.092;-1.640;2022-12-18T09:28:05;5.30;99.90
76120;DHT22;64852;48.092;-1.640;2022-12-18T09:30:31;5.30;99.90
76120;DHT22;64852;48.092;-1.640;2022-12-18T09:33:00;5.30;99.90
76120;DHT22;64852;48.092;-1.640;2022-12-18T09:35:26;5.40;99.90
76120;DHT22;64852;48.092;-1.640;2022-12-18T09:37:53;5.40;99.90
76120;DHT22;64852;48.092;-1.640;2022-12-18T09:40:21;5.40;99.90
76120;DHT22;64852;48.092;-1.640;2022-12-18T09:42:54;5.40;99.90
76120;DHT22;64852;48.092;-1.640;2022-12-18T09:45:21;5.50;99.90
76120;DHT22;64852;48.092;-1.640;2022-12-18T09:47:49;5.50;99.90
76120;DHT22;64852;48.092;-1.640;2022-12-18T09:50:30;5.50;99.90
76120;DHT22;64852;48.092;-1.640;2022-12-18T09:52:59;5.50;99.90
76120;DHT22;64852;48.092;-1.640;2022-12-18T09:55:40;5.50;99.90
76120;DHT22;64852;48.092;-1.640;2022-12-18T10:00:35;5.50;99.90
76120;DHT22;64852;48.092;-1.640;2022-12-18T10:03:08;5.60;99.90
76120;DHT22;64852;48.092;-1.640;2022-12-18T10:11:34;5.70;99.90
76120;DHT22;64852;48.092;-1.640;2022-12-18T10:17:39;5.70;99.90
76120;DHT22;64852;48.092;-1.640;2022-12-18T10:20:16;5.80;99.90
76120;DHT22;64852;48.092;-1.640;2022-12-18T10:23:00;5.90;99.90
76120;DHT22;64852;48.092;-1.640;2022-12-18T10:28:06;6.00;99.90
76120;DHT22;64852;48.092;-1.640;2022-12-18T10:30:33;6.00;99.90
76120;DHT22;64852;48.092;-1.640;2022-12-18T10:33:02;6.20;99.90
76120;DHT22;64852;48.092;-1.640;2022-12-18T10:35:28;6.10;99.90
76120;DHT22;64852;48.092;-1.640;2022-12-18T10:40:59;6.20;99.90
76120;DHT22;64852;48.092;-1.640;2022-12-18T10:43:28;6.20;99.90
76120;DHT22;64852;48.092;-1.640;2022-12-18T10:48:55;6.10;99.90
76120;DHT22;64852;48.092;-1.640;2022-12-18T10:51:30;6.10;99.90
76120;DHT22;64852;48.092;-1.640;2022-12-18T10:54:04;6.10;99.90
76120;DHT22;64852;48.092;-1.640;2022-12-18T10:56:35;6.10;99.90
76120;DHT22;64852;48.092;-1.640;2022-12-18T10:59:05;6.10;99.90
76120;DHT22;64852;48.092;-1.640;2022-12-18T11:01:57;6.10;99.90
76120;DHT22;64852;48.092;-1.640;2022-12-18T11:04:30;6.10;99.90
76120;DHT22;64852;48.092;-1.640;2022-12-18T11:07:07;6.10;99.90
76120;DHT22;64852;48.092;-1.640;2022-12-18T11:09:35;6.10;99.90
76120;DHT22;64852;48.092;-1.640;2022-12-18T11:12:15;6.10;99.90
76120;DHT22;64852;48.092;-1.640;2022-12-18T11:14:42;6.10;99.90
76120;DHT22;64852;48.092;-1.640;2022-12-18T11:17:25;6.20;99.90
76120;DHT22;64852;48.092;-1.640;2022-12-18T11:19:55;6.20;99.90
76120;DHT22;64852;48.092;-1.640;2022-12-18T11:25:02;6.20;99.90
76120;DHT22;64852;48.092;-1.640;2022-12-18T11:27:29;6.30;99.90
76120;DHT22;64852;48.092;-1.640;2022-12-18T11:30:27;6.30;99.90
76120;DHT22;64852;48.092;-1.640;2022-12-18T11:33:11;6.40;99.90
76120;DHT22;64852;48.092;-1.640;2022-12-18T11:35:53;6.40;99.90
76120;DHT22;64852;48.092;-1.640;2022-12-18T11:38:28;6.20;99.90
76120;DHT22;64852;48.092;-1.640;2022-12-18T11:43:43;6.40;99.90
76120;DHT22;64852;48.092;-1.640;2022-12-18T11:46:18;6.50;99.90
76120;DHT22;64852;48.092;-1.640;2022-12-18T11:48:54;6.50;99.90
76120;DHT22;64852;48.092;-1.640;2022-12-18T11:51:31;6.50;99.90
76120;DHT22;64852;48.092;-1.640;2022-12-18T11:53:59;6.60;99.90
76120;DHT22;64852;48.092;-1.640;2022-12-18T11:56:39;6.60;99.90
76120;DHT22;64852;48.092;-1.640;2022-12-18T12:01:55;6.70;99.90
76120;DHT22;64852;48.092;-1.640;2022-12-18T12:07:36;6.70;99.90
76120;DHT22;64852;48.092;-1.640;2022-12-18T12:10:07;6.70;99.90
76120;DHT22;64852;48.092;-1.640;2022-12-18T12:15:50;6.80;99.90
76120;DHT22;64852;48.092;-1.640;2022-12-18T12:18:29;6.80;99.90
76120;DHT22;64852;48.092;-1.640;2022-12-18T12:21:19;6.90;99.90
76120;DHT22;64852;48.092;-1.640;2022-12-18T12:29:20;6.90;99.90
76120;DHT22;64852;48.092;-1.640;2022-12-18T12:32:16;7.00;99.90
76120;DHT22;64852;48.092;-1.640;2022-12-18T12:39:56;7.00;99.90
76120;DHT22;64852;48.092;-1.640;2022-12-18T12:42:35;7.00;99.90
76120;DHT22;64852;48.092;-1.640;2022-12-18T12:45:28;6.90;99.90
76120;DHT22;64852;48.092;-1.640;2022-12-18T12:47:56;7.10;99.90
76120;DHT22;64852;48.092;-1.640;2022-12-18T12:50:23;7.20;99.90
76120;DHT22;64852;48.092;-1.640;2022-12-18T12:52:50;7.30;99.90
76120;DHT22;64852;48.092;-1.640;2022-12-18T12:55:21;7.30;99.90
76120;DHT22;64852;48.092;-1.640;2022-12-18T13:00:26;7.20;99.90
76120;DHT22;64852;48.092;-1.640;2022-12-18T13:06:17;7.30;99.90
76120;DHT22;64852;48.092;-1.640;2022-12-18T13:08:56;7.40;99.90
76120;DHT22;64852;48.092;-1.640;2022-12-18T13:11:43;7.40;99.90
76120;DHT22;64852;48.092;-1.640;2022-12-18T13:14:30;7.40;99.90
76120;DHT22;64852;48.092;-1.640;2022-12-18T13:20:06;7.50;99.90
76120;DHT22;64852;48.092;-1.640;2022-12-18T13:22:48;7.60;99.90
76120;DHT22;64852;48.092;-1.640;2022-12-18T13:25:32;7.60;99.90
76120;DHT22;64852;48.092;-1.640;2022-12-18T13:28:11;7.60;99.90
76120;DHT22;64852;48.092;-1.640;2022-12-18T13:30:42;7.70;99.90
76120;DHT22;64852;48.092;-1.640;2022-12-18T13:40:57;7.70;99.90
76120;DHT22;64852;48.092;-1.640;2022-12-18T13:43:29;7.70;99.90
76120;DHT22;64852;48.092;-1.640;2022-12-18T13:45:59;7.80;99.90
76120;DHT22;64852;48.092;-1.640;2022-12-18T13:48:26;7.70;99.90
76120;DHT22;64852;48.092;-1.640;2022-12-18T13:51:05;7.90;99.90
76120;DHT22;64852;48.092;-1.640;2022-12-18T13:53:56;7.90;99.90
76120;DHT22;64852;48.092;-1.640;2022-12-18T13:56:29;8.00;99.90
76120;DHT22;64852;48.092;-1.640;2022-12-18T14:01:47;8.00;99.90
76120;DHT22;64852;48.092;-1.640;2022-12-18T14:04:26;8.00;99.90
76120;DHT22;64852;48.092;-1.640;2022-12-18T14:06:56;8.10;99.90
76120;DHT22;64852;48.092;-1.640;2022-12-18T14:09:28;8.20;99.90
76120;DHT22;64852;48.092;-1.640;2022-12-18T14:11:56;8.20;99.90
76120;DHT22;64852;48.092;-1.640;2022-12-18T14:14:46;8.20;99.90
76120;DHT22;64852;48.092;-1.640;2022-12-18T14:17:13;8.30;99.90
76120;DHT22;64852;48.092;-1.640;2022-12-18T14:19:47;8.20;99.90
76120;DHT22;64852;48.092;-1.640;2022-12-18T14:22:20;8.20;99.90
76120;DHT22;64852;48.092;-1.640;2022-12-18T14:24:47;8.30;99.90
76120;DHT22;64852;48.092;-1.640;2022-12-18T14:27:22;8.40;99.90
76120;DHT22;64852;48.092;-1.640;2022-12-18T14:29:48;8.40;99.90
76120;DHT22;64852;48.092;-1.640;2022-12-18T14:32:19;8.40;99.90
76120;DHT22;64852;48.092;-1.640;2022-12-18T14:34:47;8.40;99.90
76120;DHT22;64852;48.092;-1.640;2022-12-18T14:37:15;8.50;99.90
76120;DHT22;64852;48.092;-1.640;2022-12-18T14:39:59;8.50;99.90
76120;DHT22;64852;48.092;-1.640;2022-12-18T14:42:28;8.70;99.90
76120;DHT22;64852;48.092;-1.640;2022-12-18T14:45:36;8.70;99.90
76120;DHT22;64852;48.092;-1.640;2022-12-18T14:48:06;8.70;99.90
76120;DHT22;64852;48.092;-1.640;2022-12-18T14:50:32;8.70;99.90
76120;DHT22;64852;48.092;-1.640;2022-12-18T14:52:58;8.70;99.90
76120;DHT22;64852;48.092;-1.640;2022-12-18T14:55:24;8.80;99.90
76120;DHT22;64852;48.092;-1.640;2022-12-18T14:57:52;8.80;99.90
76120;DHT22;64852;48.092;-1.640;2022-12-18T15:00:21;8.90;99.90
76120;DHT22;64852;48.092;-1.640;2022-12-18T15:02:54;8.90;99.90
76120;DHT22;64852;48.092;-1.640;2022-12-18T15:05:26;9.00;99.90
76120;DHT22;64852;48.092;-1.640;2022-12-18T15:07:55;8.90;99.90
76120;DHT22;64852;48.092;-1.640;2022-12-18T15:10:23;9.10;99.90
76120;DHT22;64852;48.092;-1.640;2022-12-18T15:13:06;9.00;99.90
76120;DHT22;64852;48.092;-1.640;2022-12-18T15:25:46;9.10;99.90
76120;DHT22;64852;48.092;-1.640;2022-12-18T15:28:25;9.20;99.90
76120;DHT22;64852;48.092;-1.640;2022-12-18T15:30:59;9.10;99.90
76120;DHT22;64852;48.092;-1.640;2022-12-18T15:33:29;9.10;99.90
76120;DHT22;64852;48.092;-1.640;2022-12-18T15:35:57;9.20;99.90
76120;DHT22;64852;48.092;-1.640;2022-12-18T15:38:23;9.20;99.90
76120;DHT22;64852;48.092;-1.640;2022-12-18T15:40:49;9.20;99.90
76120;DHT22;64852;48.092;-1.640;2022-12-18T15:43:14;9.20;99.90
76120;DHT22;64852;48.092;-1.640;2022-12-18T15:45:59;9.30;99.90
76120;DHT22;64852;48.092;-1.640;2022-12-18T15:48:25;9.30;99.90
76120;DHT22;64852;48.092;-1.640;2022-12-18T15:50:53;9.40;99.90
76120;DHT22;64852;48.092;-1.640;2022-12-18T15:53:19;9.40;99.90
76120;DHT22;64852;48.092;-1.640;2022-12-18T15:55:45;9.40;99.90
76120;DHT22;64852;48.092;-1.640;2022-12-18T15:58:29;9.50;99.90
76120;DHT22;64852;48.092;-1.640;2022-12-18T16:00:55;9.40;99.90
76120;DHT22;64852;48.092;-1.640;2022-12-18T16:03:22;9.40;99.90
76120;DHT22;64852;48.092;-1.640;2022-12-18T16:05:47;9.30;99.90
76120;DHT22;64852;48.092;-1.640;2022-12-18T16:08:13;9.30;99.90
76120;DHT22;64852;48.092;-1.640;2022-12-18T16:10:39;9.40;99.90
76120;DHT22;64852;48.092;-1.640;2022-12-18T16:13:05;9.40;99.90
76120;DHT22;64852;48.092;-1.640;2022-12-18T16:15:31;9.40;99.90
76120;DHT22;64852;48.092;-1.640;2022-12-18T16:17:57;9.40;99.90
76120;DHT22;64852;48.092;-1.640;2022-12-18T16:20:22;9.40;99.90
76120;DHT22;64852;48.092;-1.640;2022-12-18T16:22:49;9.50;99.90
76120;DHT22;64852;48.092;-1.640;2022-12-18T16:25:16;9.50;99.90
76120;DHT22;64852;48.092;-1.640;2022-12-18T16:27:42;9.50;99.90
76120;DHT22;64852;48.092;-1.640;2022-12-18T16:30:15;9.60;99.90
76120;DHT22;64852;48.092;-1.640;2022-12-18T16:32:42;9.70;99.90
76120;DHT22;64852;48.092;-1.640;2022-12-18T16:35:10;9.70;99.90
76120;DHT22;64852;48.092;-1.640;2022-12-18T16:37:37;9.50;99.90
76120;DHT22;64852;48.092;-1.640;2022-12-18T16:40:03;9.60;99.90
76120;DHT22;64852;48.092;-1.640;2022-12-18T16:42:28;9.70;99.90
76120;DHT22;64852;48.092;-1.640;2022-12-18T16:44:54;9.60;99.90
76120;DHT22;64852;48.092;-1.640;2022-12-18T16:47:20;9.70;99.90
76120;DHT22;64852;48.092;-1.640;2022-12-18T16:49:45;9.80;99.90
76120;DHT22;64852;48.092;-1.640;2022-12-18T16:52:11;9.80;99.90
76120;DHT22;64852;48.092;-1.640;2022-12-18T16:54:37;9.80;99.90
76120;DHT22;64852;48.092;-1.640;2022-12-18T16:57:03;9.80;99.90
76120;DHT22;64852;48.092;-1.640;2022-12-18T16:59:33;9.90;99.90
76120;DHT22;64852;48.092;-1.640;2022-12-18T17:01:59;10.00;99.90
76120;DHT22;64852;48.092;-1.640;2022-12-18T17:04:24;9.90;99.90
76120;DHT22;64852;48.092;-1.640;2022-12-18T17:06:50;9.90;99.90
76120;DHT22;64852;48.092;-1.640;2022-12-18T17:09:20;10.00;99.90
76120;DHT22;64852;48.092;-1.640;2022-12-18T17:11:49;10.00;99.90
76120;DHT22;64852;48.092;-1.640;2022-12-18T17:14:19;10.00;99.90
76120;DHT22;64852;48.092;-1.640;2022-12-18T17:16:45;10.00;99.90
76120;DHT22;64852;48.092;-1.640;2022-12-18T17:19:12;10.10;99.90
76120;DHT22;64852;48.092;-1.640;2022-12-18T17:21:38;10.00;99.90
76120;DHT22;64852;48.092;-1.640;2022-12-18T17:24:04;10.00;99.90
76120;DHT22;64852;48.092;-1.640;2022-12-18T17:26:29;10.10;99.90